Новая Слобода

Карта отелей и гостиниц, располагающихся рядом с аэропортом Новая Слобода :

Новая Слобода Марий Эл 56° 6' 20.2788" N, 46° 6' 8.64" E
Код аэродрома ИКАО
ZA9B
Код аэродрома RU
ЗА9Б
Координаты
N56.10563° E046.10240°
Превышение над уровнем моря
150
Основная полоса
02/20
Курс магнитный
023/203
Длина основной ВПП
875
Ширина основной ВПП
45
Покрытие основной ВПП
Нетвёрдое (грунт)
Освещение ВПП
Нет
Тип: 
Аэродром
Класс аэродрома: 
Принадлежность: 
ГА
Статус: 
Недействующий
Сайт: 
E-mail аэродрома: 
Страна: 
Россия
Регион: 
Марий Эл
Город: 
Дополнительная информация: 

Найти трансфер

С помощью этой формы Вы можете найти трансфер из аэропорта Новая Слобода в город, аэропорт или вокзал:

Карта места

Javascript is required to view this map.

Погода в аэропортах:

Авиационная погода в аэропорту Имени Алексея Леонова

Регион: 
Погода METAR: 
UNEE 262030Z 20005MPS 7000 -SHSN SCT040CB M24/M28 Q1031 R23/450545 NOSIG RMK QFE750
Время наблюдения
2021-02-26T20:30:00Z
Температура C
-24.0
Точка росы
-28.0
Направление ветра
200
Скорость ветра (узлы)
10
Метео видимость
4.35
Явления погоды
-SHSN
Условия полета
MVFR
Аэропорт подробнее: 

Авиационная погода в Каяани

Регион: 
Погода METAR: 
EFKI 262050Z AUTO 29009KT 8000 -SHSN BKN003 OVC019 00/00 Q1005 REFZDZ
Время наблюдения
2021-02-26T20:50:00Z
Температура C
0.0
Точка росы
0.0
Направление ветра
290
Скорость ветра (узлы)
9
Метео видимость
4.97
Явления погоды
-SHSN
Условия полета
LIFR

Авиационная погода в Чернобаевке

Регион: 
Погода METAR: 
UKOH 262030Z 21005MPS 4900 BR NSC 03/03 Q1020 R03/CLRD65 TEMPO 2100 BR BKN007 BKN015CB
Время наблюдения
2021-02-26T20:30:00Z
Температура C
3.0
Точка росы
3.0
Направление ветра
210
Скорость ветра (узлы)
10
Метео видимость
3.04
Явления погоды
BR
Условия полета
MVFR
Аэропорт подробнее: 

Авиационная погода в Чебоксарах

Регион: 
Погода METAR: 
UWKS 262030Z 14007MPS 1100 R06/P2000N SN BLSN OVC003 M13/M14 Q0995 R06/820537 NOSIG RMK QFE731
Время наблюдения
2021-02-26T20:30:00Z
Температура C
-13.0
Точка росы
-14.0
Направление ветра
140
Скорость ветра (узлы)
14
Метео видимость
0.68
Явления погоды
SN BLSN
Условия полета
LIFR
Аэропорт подробнее: